Time;durP1;ratioP1;P1;durP2;ratioP2;P2;SDS_P1;SDS_P2;PMS_P1;PMS_P2;Temp;Humidity;BMP_temperature;BMP_pressure;BME280_temperature;BME280_humidity;BME280_pressure;Samples;Min_cycle;Max_cycle;Signal;HPM_P1;HPM_P2
2021/08/31 00:00:35;;;;;;;15.85;12.80;;;16.70;99.90;;;;;;5031406;28;20021;-37
2021/08/31 00:03:00;;;;;;;14.43;12.25;;;16.70;99.90;;;;;;5031983;28;20518;-37
2021/08/31 00:05:26;;;;;;;18.20;14.15;;;16.70;99.90;;;;;;5031463;28;20037;-36
2021/08/31 00:07:51;;;;;;;17.52;14.93;;;16.60;99.90;;;;;;5030967;28;20017;-40
2021/08/31 00:10:17;;;;;;;18.10;13.15;;;16.60;99.90;;;;;;5032383;28;20029;-34
2021/08/31 00:12:42;;;;;;;19.13;13.57;;;16.60;99.90;;;;;;5031670;28;20491;-39
2021/08/31 00:15:09;;;;;;;17.92;13.82;;;16.60;99.90;;;;;;5031639;28;20039;-39
2021/08/31 00:17:34;;;;;;;21.63;15.48;;;16.60;99.90;;;;;;5030970;28;20025;-39
2021/08/31 00:20:00;;;;;;;16.20;14.10;;;16.60;99.90;;;;;;5031284;28;20032;-40
2021/08/31 00:22:26;;;;;;;17.30;14.93;;;16.60;99.90;;;;;;5031501;28;20032;-40
2021/08/31 00:24:52;;;;;;;19.20;14.50;;;16.60;99.90;;;;;;5030733;28;20073;-40
2021/08/31 00:27:17;;;;;;;18.38;13.85;;;16.60;99.90;;;;;;5031404;28;20440;-40
2021/08/31 00:29:43;;;;;;;19.05;14.20;;;16.50;99.90;;;;;;5031621;28;20242;-37
2021/08/31 00:32:11;;;;;;;20.38;13.85;;;16.50;99.90;;;;;;5031566;28;20087;-41
2021/08/31 00:34:37;;;;;;;16.15;13.27;;;16.50;99.90;;;;;;5031290;28;20087;-34
2021/08/31 00:37:03;;;;;;;18.95;14.38;;;16.50;99.90;;;;;;5031199;28;20026;-38
2021/08/31 00:39:28;;;;;;;24.05;14.50;;;16.50;99.90;;;;;;5031916;28;20060;-36
2021/08/31 00:41:54;;;;;;;19.25;14.55;;;16.50;99.90;;;;;;5030296;28;20021;-39
2021/08/31 00:44:21;;;;;;;20.23;14.40;;;16.40;99.90;;;;;;5031461;28;20427;-38
2021/08/31 00:47:12;;;;;;;18.48;14.85;;;16.40;99.90;;;;;;5030507;28;20018;-39
2021/08/31 00:49:37;;;;;;;19.20;15.60;;;16.40;99.90;;;;;;5022907;28;20044;-38
2021/08/31 00:52:03;;;;;;;20.15;14.45;;;16.40;99.90;;;;;;5030804;28;20358;-40
2021/08/31 00:54:29;;;;;;;17.83;14.18;;;16.40;99.90;;;;;;5031270;28;20049;-37
2021/08/31 00:57:03;;;;;;;17.75;14.90;;;16.40;99.90;;;;;;5029785;28;20022;-38
2021/08/31 00:59:29;;;;;;;22.67;15.75;;;16.30;99.90;;;;;;5031257;28;20075;-39
2021/08/31 01:01:56;;;;;;;19.55;16.83;;;16.30;99.90;;;;;;5030482;28;20065;-39
2021/08/31 01:04:24;;;;;;;21.60;15.48;;;16.30;99.90;;;;;;5030316;28;20029;-35
2021/08/31 01:06:53;;;;;;;22.13;16.33;;;16.30;99.90;;;;;;5030697;28;20026;-39
2021/08/31 01:09:22;;;;;;;20.73;16.80;;;16.30;99.90;;;;;;5030477;28;20018;-39
2021/08/31 01:11:50;;;;;;;22.80;16.27;;;16.30;99.90;;;;;;5029935;28;20044;-38
2021/08/31 01:14:17;;;;;;;22.23;17.33;;;16.30;99.90;;;;;;5030531;28;20071;-40
2021/08/31 01:16:49;;;;;;;19.80;16.45;;;16.30;99.90;;;;;;5029638;28;20024;-40
2021/08/31 01:19:17;;;;;;;19.30;17.10;;;16.30;99.90;;;;;;5030072;28;20064;-37
2021/08/31 01:21:42;;;;;;;20.02;15.68;;;16.20;99.90;;;;;;5030713;28;20121;-40
2021/08/31 01:24:08;;;;;;;20.75;16.13;;;16.30;99.90;;;;;;5029181;28;20136;-39
2021/08/31 01:26:46;;;;;;;23.55;17.38;;;16.20;99.90;;;;;;5029544;28;20038;-41
2021/08/31 01:29:11;;;;;;;21.45;16.02;;;16.20;99.90;;;;;;5030802;28;20120;-40
2021/08/31 01:31:38;;;;;;;18.52;15.48;;;16.20;99.90;;;;;;5029915;28;20124;-38
2021/08/31 01:34:04;;;;;;;25.27;18.10;;;16.20;99.90;;;;;;5029967;28;20030;-40
2021/08/31 01:36:30;;;;;;;20.15;15.95;;;16.20;99.90;;;;;;5029895;28;20068;-36
2021/08/31 01:38:58;;;;;;;20.42;17.25;;;16.20;99.90;;;;;;5029109;28;20024;-41
2021/08/31 01:41:25;;;;;;;20.70;15.93;;;16.20;99.90;;;;;;5030281;28;20065;-39
2021/08/31 01:43:51;;;;;;;20.23;16.55;;;16.10;99.90;;;;;;5029675;28;20033;-40
2021/08/31 01:46:17;;;;;;;23.13;16.65;;;16.10;99.90;;;;;;5029655;28;20026;-40
2021/08/31 01:48:43;;;;;;;21.20;15.45;;;16.10;99.90;;;;;;5029714;28;20615;-40
2021/08/31 01:51:09;;;;;;;22.92;17.25;;;16.10;99.90;;;;;;5029928;28;20029;-40
2021/08/31 01:53:35;;;;;;;19.10;15.48;;;16.10;99.90;;;;;;5029640;28;20029;-38
2021/08/31 01:56:27;;;;;;;23.05;18.05;;;16.10;99.90;;;;;;5029039;28;20013;-41
2021/08/31 01:58:53;;;;;;;21.23;16.17;;;16.00;99.90;;;;;;5027722;28;20041;-40
2021/08/31 02:01:38;;;;;;;20.17;16.38;;;16.00;99.90;;;;;;5029971;28;20284;-38
2021/08/31 02:04:10;;;;;;;21.23;16.45;;;16.00;99.90;;;;;;5029078;28;20045;-40
2021/08/31 02:06:35;;;;;;;22.03;16.30;;;16.00;99.90;;;;;;5028917;28;20051;-41
2021/08/31 02:09:01;;;;;;;25.38;17.08;;;16.00;99.90;;;;;;5029401;28;20115;-39
2021/08/31 02:11:28;;;;;;;22.15;16.77;;;16.00;99.90;;;;;;5030089;28;20350;-37
2021/08/31 02:13:53;;;;;;;25.17;16.95;;;16.00;99.90;;;;;;5029112;28;20026;-40
2021/08/31 02:16:19;;;;;;;27.65;18.00;;;16.00;99.90;;;;;;5029608;28;20028;-38
2021/08/31 02:18:44;;;;;;;23.83;16.25;;;16.00;99.90;;;;;;5029413;28;20026;-39
2021/08/31 02:21:13;;;;;;;21.88;15.70;;;16.00;99.90;;;;;;5028714;28;20030;-37
2021/08/31 02:23:39;;;;;;;24.95;15.85;;;16.00;99.90;;;;;;5029678;28;20052;-39
2021/08/31 02:26:11;;;;;;;23.92;17.30;;;16.00;99.90;;;;;;5028958;28;20022;-39
2021/08/31 02:28:36;;;;;;;23.70;16.23;;;16.00;99.90;;;;;;5028747;28;20057;-40
2021/08/31 02:31:02;;;;;;;22.60;15.80;;;16.00;99.90;;;;;;5028688;28;20377;-42
2021/08/31 02:33:28;;;;;;;21.52;16.17;;;16.00;99.90;;;;;;5029285;28;20469;-35
2021/08/31 02:35:54;;;;;;;21.30;16.38;;;16.00;99.90;;;;;;5028227;28;20021;-38
2021/08/31 02:38:22;;;;;;;28.73;17.55;;;15.90;99.90;;;;;;5029721;28;20021;-38
2021/08/31 02:40:48;;;;;;;21.80;16.00;;;15.90;99.90;;;;;;5028723;28;20021;-38
2021/08/31 02:43:13;;;;;;;25.50;16.73;;;15.90;99.90;;;;;;5028799;28;20040;-39
2021/08/31 02:45:39;;;;;;;27.45;16.88;;;15.90;99.90;;;;;;5029335;28;20112;-38
2021/08/31 02:48:07;;;;;;;26.77;18.13;;;15.90;99.90;;;;;;5028218;28;20017;-37
2021/08/31 02:50:32;;;;;;;24.65;16.95;;;15.90;99.90;;;;;;5029379;28;20545;-38
2021/08/31 02:52:58;;;;;;;24.10;16.10;;;15.80;99.90;;;;;;5028526;28;20124;-39
2021/08/31 02:55:26;;;;;;;23.20;15.90;;;15.90;99.90;;;;;;5028445;28;20036;-39
2021/08/31 02:57:52;;;;;;;24.98;16.52;;;15.80;99.90;;;;;;5028364;28;20469;-40
2021/08/31 03:00:18;;;;;;;23.77;15.55;;;15.80;99.90;;;;;;5029044;28;20108;-40
2021/08/31 03:02:45;;;;;;;29.05;17.25;;;15.80;99.90;;;;;;5027890;28;20033;-39
2021/08/31 03:05:11;;;;;;;29.27;16.45;;;15.80;99.90;;;;;;5028841;28;20045;-39
2021/08/31 03:07:40;;;;;;;29.13;17.88;;;15.80;99.90;;;;;;5027635;28;20042;-40
2021/08/31 03:10:08;;;;;;;25.35;17.95;;;15.80;99.90;;;;;;5028430;28;20075;-40
2021/08/31 03:12:34;;;;;;;26.50;16.85;;;15.80;99.90;;;;;;5028863;28;20091;-37
2021/08/31 03:14:59;;;;;;;23.80;16.45;;;15.80;99.90;;;;;;5028120;28;20025;-38
2021/08/31 03:17:25;;;;;;;25.45;16.45;;;15.80;99.90;;;;;;5028584;28;20024;-38
2021/08/31 03:19:53;;;;;;;28.95;16.88;;;15.80;99.90;;;;;;5028284;28;20056;-40
2021/08/31 03:22:21;;;;;;;29.67;17.38;;;15.80;99.90;;;;;;5028766;28;20068;-39
2021/08/31 03:24:47;;;;;;;24.17;15.43;;;15.80;99.90;;;;;;5027733;28;20408;-37
2021/08/31 03:27:12;;;;;;;25.23;17.08;;;15.80;99.90;;;;;;5028572;28;20017;-39
2021/08/31 03:29:38;;;;;;;28.30;16.67;;;15.80;99.90;;;;;;5028169;28;20018;-39
2021/08/31 03:32:13;;;;;;;28.48;17.27;;;15.80;99.90;;;;;;5027583;28;20568;-40
2021/08/31 03:34:45;;;;;;;26.60;15.57;;;15.80;99.90;;;;;;5028279;28;20068;-37
2021/08/31 03:37:10;;;;;;;23.33;15.52;;;15.80;99.90;;;;;;5027834;28;20014;-40
2021/08/31 03:39:36;;;;;;;27.42;15.60;;;15.90;99.90;;;;;;5028707;28;20483;-41
2021/08/31 03:42:05;;;;;;;27.27;15.30;;;15.80;99.90;;;;;;5028689;28;20040;-40
2021/08/31 03:44:31;;;;;;;29.90;16.40;;;15.90;99.90;;;;;;5027389;28;20029;-40
2021/08/31 03:46:56;;;;;;;21.77;15.20;;;15.90;99.90;;;;;;5028745;28;20084;-38
2021/08/31 03:49:22;;;;;;;22.23;14.20;;;15.90;99.90;;;;;;5028530;28;20025;-40
2021/08/31 03:51:47;;;;;;;23.85;14.40;;;15.90;99.90;;;;;;5028021;28;20021;-39
2021/08/31 03:54:13;;;;;;;26.52;16.00;;;15.90;99.90;;;;;;5028234;28;20026;-40
2021/08/31 03:56:38;;;;;;;22.80;15.25;;;15.90;99.90;;;;;;5027868;28;20017;-38
2021/08/31 03:59:05;;;;;;;24.77;15.07;;;16.00;99.90;;;;;;5027166;28;20060;-40
2021/08/31 04:01:31;;;;;;;25.88;13.38;;;16.00;99.90;;;;;;5032161;28;20030;-40
2021/08/31 04:03:56;;;;;;;22.17;14.10;;;16.10;99.90;;;;;;5031075;28;20087;-40
2021/08/31 04:06:22;;;;;;;20.92;13.55;;;16.10;99.90;;;;;;5031853;28;20047;-39
2021/08/31 04:08:48;;;;;;;28.00;14.45;;;16.10;99.90;;;;;;5031403;28;20381;-40
2021/08/31 04:11:13;;;;;;;22.05;12.73;;;16.10;99.90;;;;;;5032073;28;20037;-39
2021/08/31 04:13:39;;;;;;;22.88;12.85;;;16.10;99.90;;;;;;5031329;28;20038;-39
2021/08/31 04:16:04;;;;;;;21.48;13.27;;;16.20;99.90;;;;;;5031822;28;20076;-40
2021/08/31 04:18:30;;;;;;;23.10;12.80;;;16.20;99.90;;;;;;5032301;28;20026;-36
2021/08/31 04:20:55;;;;;;;22.35;11.85;;;16.20;99.90;;;;;;5031009;28;20021;-38
2021/08/31 04:23:21;;;;;;;27.83;13.55;;;16.20;99.90;;;;;;5031809;28;20030;-39
2021/08/31 04:25:46;;;;;;;22.42;11.90;;;16.20;99.90;;;;;;5031377;28;20080;-36
2021/08/31 04:28:12;;;;;;;26.05;12.73;;;16.30;99.90;;;;;;5031439;28;20025;-39
2021/08/31 04:30:37;;;;;;;17.02;11.05;;;16.30;99.90;;;;;;5030263;28;20033;-40
2021/08/31 04:33:03;;;;;;;25.85;11.50;;;16.30;99.90;;;;;;5031784;28;20484;-38
2021/08/31 04:35:29;;;;;;;23.70;11.95;;;16.20;99.90;;;;;;5031308;28;20175;-40
2021/08/31 04:37:57;;;;;;;23.85;10.93;;;16.30;99.90;;;;;;5031543;28;20049;-38
2021/08/31 04:40:24;;;;;;;20.52;11.52;;;16.30;99.90;;;;;;5031601;28;20021;-40
2021/08/31 04:42:52;;;;;;;21.58;10.63;;;16.30;99.90;;;;;;5030904;28;20441;-39
2021/08/31 04:45:17;;;;;;;18.08;9.20;;;16.30;99.90;;;;;;5031782;28;20091;-39
2021/08/31 04:47:43;;;;;;;19.45;10.18;;;16.30;99.90;;;;;;5031264;28;20017;-38
2021/08/31 04:50:09;;;;;;;24.48;10.85;;;16.30;99.90;;;;;;5031214;28;20018;-39
2021/08/31 04:52:37;;;;;;;18.90;10.60;;;16.30;99.90;;;;;;5031154;28;20105;-40
2021/08/31 04:55:03;;;;;;;24.30;11.23;;;16.30;99.90;;;;;;5030756;28;20025;-40
2021/08/31 04:57:49;;;;;;;16.52;9.82;;;16.30;99.90;;;;;;5030878;28;20095;-35
2021/08/31 05:00:17;;;;;;;17.75;10.15;;;16.40;99.90;;;;;;5023900;28;20623;-38
2021/08/31 05:02:43;;;;;;;17.38;9.35;;;16.40;99.90;;;;;;5030458;28;20049;-41
2021/08/31 05:05:09;;;;;;;19.85;9.63;;;16.40;99.90;;;;;;5030692;28;20033;-38
2021/08/31 05:07:39;;;;;;;15.13;8.77;;;16.40;99.90;;;;;;5031103;28;20022;-39
2021/08/31 05:10:06;;;;;;;18.33;9.15;;;16.40;99.90;;;;;;5029729;28;20022;-38
2021/08/31 05:12:32;;;;;;;18.15;9.68;;;16.40;99.90;;;;;;5029777;28;20023;-38
2021/08/31 05:14:57;;;;;;;17.85;9.23;;;16.50;99.90;;;;;;5030403;28;20037;-37
2021/08/31 05:17:23;;;;;;;21.90;10.82;;;16.40;99.90;;;;;;5029984;28;20510;-40
2021/08/31 05:19:51;;;;;;;18.90;10.13;;;16.50;99.90;;;;;;5029984;28;20032;-39
2021/08/31 05:22:17;;;;;;;19.48;8.85;;;16.50;99.90;;;;;;5029932;28;20485;-40
2021/08/31 05:24:45;;;;;;;16.70;8.55;;;16.50;99.90;;;;;;5029807;28;20527;-39
2021/08/31 05:27:11;;;;;;;25.77;10.60;;;16.50;99.90;;;;;;5030416;28;20021;-38
2021/08/31 05:29:37;;;;;;;16.05;8.82;;;16.50;99.90;;;;;;5030703;28;20048;-37
2021/08/31 05:32:02;;;;;;;15.32;8.38;;;16.50;99.90;;;;;;5029777;28;20072;-39
2021/08/31 05:34:28;;;;;;;16.58;9.40;;;16.60;99.90;;;;;;5030056;28;20110;-38
2021/08/31 05:36:53;;;;;;;17.77;8.50;;;16.60;99.90;;;;;;5029065;28;20068;-39
2021/08/31 05:39:22;;;;;;;17.38;8.50;;;16.60;99.90;;;;;;5029818;28;20026;-38
2021/08/31 05:41:47;;;;;;;17.58;8.13;;;16.60;99.90;;;;;;5030322;28;20380;-40
2021/08/31 05:44:13;;;;;;;14.25;8.25;;;16.60;99.90;;;;;;5029701;28;20056;-41
2021/08/31 05:46:41;;;;;;;17.13;8.43;;;16.70;99.90;;;;;;5029395;28;20021;-37
2021/08/31 05:49:07;;;;;;;18.48;8.52;;;16.70;99.90;;;;;;5029420;28;20112;-38
2021/08/31 05:51:32;;;;;;;16.58;8.50;;;16.70;99.90;;;;;;5028718;28;20116;-38
2021/08/31 05:53:58;;;;;;;15.82;8.63;;;16.70;99.90;;;;;;5028640;28;20014;-39
2021/08/31 05:56:26;;;;;;;13.75;7.65;;;16.70;99.90;;;;;;5039027;28;20546;-38
2021/08/31 05:58:51;;;;;;;16.15;7.75;;;16.70;99.90;;;;;;5028236;28;20048;-38
2021/08/31 06:01:17;;;;;;;15.15;7.43;;;16.80;99.90;;;;;;5028547;28;20465;-40
2021/08/31 06:03:43;;;;;;;19.45;7.45;;;16.80;99.90;;;;;;5027891;28;20029;-37
2021/08/31 06:06:08;;;;;;;17.92;7.60;;;16.80;99.90;;;;;;5028533;28;20029;-39
2021/08/31 06:08:35;;;;;;;15.05;6.90;;;16.90;99.90;;;;;;5028513;28;20105;-38
2021/08/31 06:11:01;;;;;;;15.43;7.35;;;16.90;99.90;;;;;;5028649;28;20156;-40
2021/08/31 06:13:29;;;;;;;13.68;6.70;;;16.90;99.90;;;;;;5028291;28;20490;-40
2021/08/31 06:16:01;;;;;;;18.48;7.60;;;17.00;99.90;;;;;;5028210;28;20022;-38
2021/08/31 06:18:27;;;;;;;17.87;7.40;;;17.00;99.90;;;;;;5028680;28;20029;-39
2021/08/31 06:20:52;;;;;;;20.23;7.38;;;17.00;99.90;;;;;;5027239;28;20276;-39
2021/08/31 06:23:18;;;;;;;16.67;7.80;;;17.00;99.90;;;;;;5028241;28;20025;-39
2021/08/31 06:25:44;;;;;;;13.65;6.43;;;17.10;99.90;;;;;;5027902;28;20061;-39
2021/08/31 06:28:10;;;;;;;13.07;5.85;;;17.10;99.90;;;;;;5028918;28;20009;-37
2021/08/31 06:30:35;;;;;;;14.88;6.60;;;17.20;99.90;;;;;;5029852;28;20353;-38
2021/08/31 06:33:01;;;;;;;16.02;6.85;;;17.20;99.90;;;;;;5027910;28;20487;-37
2021/08/31 06:35:26;;;;;;;12.10;7.10;;;17.30;99.90;;;;;;5029500;28;20026;-37
2021/08/31 06:37:52;;;;;;;15.35;7.40;;;17.30;99.90;;;;;;5028619;28;20025;-36
2021/08/31 06:40:17;;;;;;;17.83;7.90;;;17.30;99.90;;;;;;5028456;28;20028;-38
2021/08/31 06:42:43;;;;;;;16.27;7.28;;;17.30;99.90;;;;;;5029421;28;20033;-36
2021/08/31 06:45:09;;;;;;;21.75;8.82;;;17.30;99.90;;;;;;5028391;28;20083;-38
2021/08/31 06:47:34;;;;;;;18.17;7.93;;;17.40;99.90;;;;;;5028574;28;20477;-38
2021/08/31 06:50:00;;;;;;;16.58;8.23;;;17.40;99.90;;;;;;5028742;28;20155;-38
2021/08/31 06:52:25;;;;;;;14.93;7.18;;;17.40;99.90;;;;;;5029549;28;20029;-39
2021/08/31 06:54:57;;;;;;;11.70;7.03;;;17.40;99.90;;;;;;5027743;28;20075;-40
2021/08/31 06:57:23;;;;;;;21.02;7.55;;;17.40;99.90;;;;;;5029578;28;20017;-39
2021/08/31 06:59:48;;;;;;;16.23;7.63;;;17.50;99.90;;;;;;5030781;28;20033;-37
2021/08/31 07:02:23;;;;;;;11.77;6.38;;;17.50;99.90;;;;;;5028439;28;20171;-39
2021/08/31 07:04:49;;;;;;;13.10;6.82;;;17.60;99.90;;;;;;5028434;28;20045;-39
2021/08/31 07:07:15;;;;;;;15.18;7.07;;;17.70;99.90;;;;;;5029175;28;20021;-39
2021/08/31 07:09:43;;;;;;;16.63;7.18;;;17.70;99.90;;;;;;5028201;28;20033;-39
2021/08/31 07:12:18;;;;;;;16.25;6.78;;;17.80;99.90;;;;;;5038234;28;20062;-37
2021/08/31 07:14:53;;;;;;;16.95;8.18;;;17.90;99.90;;;;;;5037030;28;20424;-39
2021/08/31 07:17:19;;;;;;;15.52;6.60;;;17.90;99.90;;;;;;5038214;28;20014;-40
2021/08/31 07:19:47;;;;;;;12.45;7.18;;;18.00;99.90;;;;;;5039019;28;20135;-38
2021/08/31 07:22:13;;;;;;;10.77;6.97;;;18.00;99.90;;;;;;5028644;28;20013;-39
2021/08/31 07:24:39;;;;;;;15.80;6.82;;;18.00;99.90;;;;;;5027851;28;20136;-40
2021/08/31 07:27:04;;;;;;;19.20;7.25;;;18.00;99.90;;;;;;5035404;28;20036;-38
2021/08/31 07:29:32;;;;;;;18.08;9.07;;;18.00;99.90;;;;;;5028324;28;20048;-37
2021/08/31 07:31:58;;;;;;;13.52;6.70;;;18.00;99.90;;;;;;5028149;28;20357;-39
2021/08/31 07:34:24;;;;;;;15.35;7.32;;;18.00;99.90;;;;;;5028656;28;20504;-38
2021/08/31 07:36:49;;;;;;;16.52;6.95;;;18.10;99.90;;;;;;5030768;28;20025;-35
2021/08/31 07:39:15;;;;;;;13.50;6.63;;;18.10;99.90;;;;;;5032559;28;20025;-38
2021/08/31 07:41:40;;;;;;;14.95;6.85;;;18.10;99.90;;;;;;5032357;28;20022;-40
2021/08/31 07:44:17;;;;;;;8.48;5.70;;;18.10;99.90;;;;;;5031595;28;20110;-39
2021/08/31 07:46:46;;;;;;;11.90;6.15;;;18.20;99.90;;;;;;5031356;28;20025;-39
2021/08/31 07:49:15;;;;;;;12.77;5.85;;;18.30;99.90;;;;;;5032556;28;20057;-38
2021/08/31 07:51:42;;;;;;;11.20;5.00;;;18.30;99.90;;;;;;5031437;28;20132;-40
2021/08/31 07:54:11;;;;;;;12.48;6.55;;;18.50;99.90;;;;;;5031430;28;20037;-41
2021/08/31 07:56:40;;;;;;;21.63;7.30;;;18.60;99.90;;;;;;5031239;28;20381;-38
2021/08/31 07:59:06;;;;;;;11.38;6.00;;;18.60;99.90;;;;;;5031411;28;20026;-35
2021/08/31 08:01:35;;;;;;;10.85;6.60;;;18.70;99.90;;;;;;5031345;28;20028;-40
2021/08/31 08:04:00;;;;;;;10.48;6.80;;;18.70;99.90;;;;;;5031161;28;20381;-40
2021/08/31 08:06:26;;;;;;;13.88;6.78;;;18.70;99.90;;;;;;5031037;28;20021;-37
2021/08/31 08:08:52;;;;;;;13.75;6.18;;;18.70;99.90;;;;;;5030883;28;20037;-40
2021/08/31 08:11:18;;;;;;;11.32;5.85;;;18.70;99.90;;;;;;5031768;28;20029;-39
2021/08/31 08:13:46;;;;;;;9.38;4.97;;;18.70;99.90;;;;;;5031009;28;20040;-38
2021/08/31 08:16:12;;;;;;;11.35;5.40;;;18.80;99.90;;;;;;5031582;28;20026;-36
2021/08/31 08:18:43;;;;;;;7.63;5.10;;;18.90;99.90;;;;;;5030706;28;20120;-39
2021/08/31 08:21:18;;;;;;;9.77;5.97;;;18.90;99.90;;;;;;5031750;28;20065;-37
2021/08/31 08:23:44;;;;;;;10.30;5.05;;;19.00;99.90;;;;;;5029123;28;20041;-36
2021/08/31 08:26:10;;;;;;;13.95;5.72;;;19.00;99.90;;;;;;5029615;28;20032;-37
2021/08/31 08:28:39;;;;;;;7.82;5.05;;;19.00;99.90;;;;;;5031698;28;20084;-38
2021/08/31 08:31:06;;;;;;;10.70;5.30;;;19.10;99.90;;;;;;5032115;28;20375;-40
2021/08/31 08:33:32;;;;;;;11.80;5.38;;;19.10;99.90;;;;;;5030672;28;20017;-40
2021/08/31 08:36:03;;;;;;;9.35;5.05;;;19.10;99.90;;;;;;5030193;28;20408;-35
2021/08/31 08:38:29;;;;;;;12.57;5.40;;;19.20;99.90;;;;;;5030923;28;20032;-36
2021/08/31 08:41:00;;;;;;;10.88;5.78;;;19.20;99.90;;;;;;5030392;28;20022;-35
2021/08/31 08:43:26;;;;;;;8.35;4.72;;;19.20;99.90;;;;;;5031296;28;20528;-39
2021/08/31 08:45:52;;;;;;;11.30;5.38;;;19.20;99.90;;;;;;5030769;28;20041;-39
2021/08/31 08:48:22;;;;;;;12.07;5.22;;;19.30;99.90;;;;;;5030352;28;20022;-38
2021/08/31 08:50:50;;;;;;;13.00;5.78;;;19.30;99.90;;;;;;5030274;28;20123;-39
2021/08/31 08:53:16;;;;;;;8.30;5.15;;;19.40;99.90;;;;;;5030342;28;20179;-38
2021/08/31 08:55:42;;;;;;;8.50;4.72;;;19.50;99.90;;;;;;5029963;28;20538;-35
2021/08/31 08:58:07;;;;;;;8.60;4.60;;;19.50;99.90;;;;;;5029968;28;20076;-39
2021/08/31 09:01:00;;;;;;;8.35;4.97;;;19.50;99.90;;;;;;5030475;28;20476;-40
2021/08/31 09:03:26;;;;;;;11.90;5.53;;;19.60;99.90;;;;;;5016222;28;20132;-37
2021/08/31 09:06:05;;;;;;;13.65;6.15;;;19.70;99.90;;;;;;5029823;28;20045;-40
2021/08/31 09:08:30;;;;;;;12.13;5.53;;;19.70;99.90;;;;;;5029927;28;20108;-37
2021/08/31 09:10:59;;;;;;;7.55;4.03;;;19.70;99.90;;;;;;5030035;28;20640;-38
2021/08/31 09:13:30;;;;;;;9.32;4.68;;;19.70;99.90;;;;;;5029845;28;20017;-37
2021/08/31 09:15:55;;;;;;;10.77;4.85;;;19.80;99.90;;;;;;5029120;28;20029;-38
2021/08/31 09:18:25;;;;;;;12.57;4.70;;;19.80;99.90;;;;;;5030099;28;20072;-37
2021/08/31 09:20:53;;;;;;;10.20;4.68;;;19.90;99.90;;;;;;5029277;28;20075;-36
2021/08/31 09:23:21;;;;;;;8.05;4.13;;;20.00;99.90;;;;;;5029474;28;20100;-39
2021/08/31 09:25:50;;;;;;;11.43;4.88;;;20.00;99.90;;;;;;5029397;28;20049;-43
2021/08/31 09:28:25;;;;;;;11.07;4.90;;;20.00;99.90;;;;;;5030208;28;20021;-40
2021/08/31 09:31:00;;;;;;;8.00;4.55;;;19.90;99.90;;;;;;5028715;28;20037;-39
2021/08/31 09:33:29;;;;;;;6.47;4.57;;;19.90;99.90;;;;;;5030213;28;20505;-38
2021/08/31 09:36:10;;;;;;;7.80;4.68;;;20.00;99.90;;;;;;5028446;28;20472;-37
2021/08/31 09:38:56;;;;;;;7.78;4.50;;;20.00;99.90;;;;;;5029952;28;20033;-39
2021/08/31 09:41:36;;;;;;;7.57;3.95;;;20.00;99.90;;;;;;5029820;28;20916;-39
2021/08/31 09:44:05;;;;;;;5.28;3.95;;;20.00;99.90;;;;;;5028973;28;20095;-38
2021/08/31 09:47:07;;;;;;;9.38;4.50;;;20.10;99.90;;;;;;5029203;28;20025;-39
2021/08/31 09:49:39;;;;;;;8.35;4.25;;;20.20;99.90;;;;;;5029078;28;20037;-38
2021/08/31 09:52:11;;;;;;;12.57;5.10;;;20.30;99.80;;;;;;5028840;28;20354;-38
2021/08/31 09:54:41;;;;;;;10.18;4.68;;;20.30;99.70;;;;;;5029714;28;20033;-35
2021/08/31 09:57:29;;;;;;;7.72;4.68;;;20.30;99.60;;;;;;5028549;28;20022;-38
2021/08/31 09:59:56;;;;;;;8.07;4.20;;;20.30;99.60;;;;;;5023641;28;20033;-38
2021/08/31 10:02:22;;;;;;;8.63;4.95;;;20.40;99.60;;;;;;5029822;28;20021;-38
2021/08/31 10:04:52;;;;;;;8.43;4.50;;;20.40;99.00;;;;;;5028976;28;20124;-35
2021/08/31 10:07:20;;;;;;;6.07;4.63;;;20.30;99.00;;;;;;5029951;28;20369;-38
2021/08/31 10:09:52;;;;;;;9.90;4.53;;;20.20;99.30;;;;;;5029166;28;20021;-38
2021/08/31 10:12:20;;;;;;;10.48;4.35;;;20.20;99.40;;;;;;5029259;28;20033;-40
2021/08/31 10:14:50;;;;;;;8.38;4.93;;;20.20;99.50;;;;;;5028809;28;20402;-37
2021/08/31 10:17:18;;;;;;;9.55;4.78;;;20.30;99.10;;;;;;5029699;28;20091;-37
2021/08/31 10:19:46;;;;;;;8.10;4.78;;;20.40;99.10;;;;;;5029081;28;20022;-40
2021/08/31 10:22:14;;;;;;;8.73;4.65;;;20.50;98.90;;;;;;5029230;28;20064;-40
2021/08/31 10:24:45;;;;;;;7.60;4.32;;;20.60;98.90;;;;;;5029304;28;20111;-38
2021/08/31 10:27:32;;;;;;;6.88;4.30;;;20.60;98.80;;;;;;5028787;28;20056;-41
2021/08/31 10:30:27;;;;;;;6.28;3.90;;;20.80;98.70;;;;;;5023435;28;20038;-38
2021/08/31 10:33:00;;;;;;;9.93;4.53;;;20.90;98.40;;;;;;5028030;28;20038;-39
2021/08/31 10:35:31;;;;;;;10.25;5.55;;;20.90;98.30;;;;;;5029845;28;20013;-40
2021/08/31 10:38:01;;;;;;;8.82;5.22;;;20.80;98.10;;;;;;5029040;28;20136;-40
2021/08/31 10:40:32;;;;;;;7.65;4.70;;;20.80;98.20;;;;;;5028904;28;20480;-39
2021/08/31 10:42:58;;;;;;;7.57;4.68;;;20.60;98.40;;;;;;5028370;28;20029;-36
2021/08/31 10:45:35;;;;;;;8.13;4.53;;;20.60;98.30;;;;;;5029103;28;20049;-40
2021/08/31 10:48:21;;;;;;;8.88;4.68;;;20.60;98.40;;;;;;5027826;28;20044;-39
2021/08/31 10:51:01;;;;;;;7.00;4.57;;;20.80;98.60;;;;;;5008912;28;20104;-38
2021/08/31 10:53:40;;;;;;;11.02;5.35;;;21.00;98.40;;;;;;5026132;28;20042;-37
2021/08/31 10:56:24;;;;;;;8.45;3.95;;;21.00;97.60;;;;;;5029093;28;20030;-40
2021/08/31 10:58:58;;;;;;;8.65;4.60;;;20.90;97.50;;;;;;5028035;28;20120;-38
2021/08/31 11:01:38;;;;;;;6.57;4.07;;;20.80;97.70;;;;;;5027930;28;20376;-36
2021/08/31 11:04:30;;;;;;;5.38;3.63;;;20.90;98.20;;;;;;5028861;28;20029;-38
2021/08/31 11:07:04;;;;;;;5.85;4.43;;;21.10;98.20;;;;;;5028742;28;20026;-41
2021/08/31 11:09:30;;;;;;;8.73;4.35;;;21.30;97.40;;;;;;5028476;28;20056;-40
2021/08/31 11:12:07;;;;;;;5.18;4.05;;;21.30;96.90;;;;;;5033066;28;20121;-41
2021/08/31 11:14:41;;;;;;;6.03;4.15;;;21.20;96.40;;;;;;5032370;28;20013;-39
2021/08/31 11:17:07;;;;;;;8.32;4.18;;;21.20;96.40;;;;;;5032692;28;20036;-38
2021/08/31 11:19:32;;;;;;;6.82;4.25;;;21.20;96.80;;;;;;5033556;28;20389;-41
2021/08/31 11:21:58;;;;;;;8.02;4.40;;;21.30;96.60;;;;;;5032497;28;20036;-36
2021/08/31 11:24:24;;;;;;;7.63;4.38;;;21.20;96.50;;;;;;5032896;28;20041;-41
2021/08/31 11:27:00;;;;;;;8.43;4.32;;;21.20;96.40;;;;;;5032301;28;20104;-38
2021/08/31 11:29:38;;;;;;;4.38;3.63;;;21.10;96.60;;;;;;5031987;28;20022;-40
2021/08/31 11:32:04;;;;;;;9.10;4.07;;;21.00;96.70;;;;;;5013266;28;20030;-37
2021/08/31 11:34:30;;;;;;;7.68;3.83;;;21.10;97.00;;;;;;5027591;28;20028;-39
2021/08/31 11:37:10;;;;;;;5.90;3.55;;;21.20;96.90;;;;;;5032035;28;20021;-39
2021/08/31 11:39:35;;;;;;;8.73;4.35;;;21.30;96.90;;;;;;5032458;28;20079;-39
2021/08/31 11:42:01;;;;;;;6.75;4.32;;;21.50;95.60;;;;;;5031150;28;20025;-38
2021/08/31 11:44:33;;;;;;;8.45;4.15;;;21.40;95.30;;;;;;5037486;28;20040;-39
2021/08/31 11:46:58;;;;;;;6.68;3.67;;;21.50;95.30;;;;;;5031999;28;20014;-43
2021/08/31 11:49:26;;;;;;;6.05;3.67;;;21.50;95.30;;;;;;5031125;28;20020;-40
2021/08/31 11:51:54;;;;;;;6.50;4.00;;;21.60;95.70;;;;;;5031838;28;20021;-38
2021/08/31 11:54:21;;;;;;;5.80;3.83;;;21.70;95.70;;;;;;5032464;28;20026;-39
2021/08/31 11:56:52;;;;;;;7.50;4.88;;;21.80;95.70;;;;;;5027828;28;20633;-38
2021/08/31 11:59:46;;;;;;;5.45;3.40;;;21.90;95.50;;;;;;5031773;28;20021;-34
2021/08/31 12:02:26;;;;;;;8.57;4.15;;;22.00;95.00;;;;;;5031938;28;20033;-40
2021/08/31 12:04:54;;;;;;;5.85;4.25;;;21.90;95.00;;;;;;5030305;28;20060;-38
2021/08/31 12:07:33;;;;;;;6.30;3.92;;;21.80;94.90;;;;;;5031985;28;20132;-40
2021/08/31 12:10:24;;;;;;;8.07;4.40;;;21.70;94.90;;;;;;5030228;28;20543;-40
2021/08/31 12:12:50;;;;;;;8.45;4.20;;;21.60;95.10;;;;;;5043800;28;20111;-41
2021/08/31 12:15:25;;;;;;;5.93;3.80;;;21.60;95.20;;;;;;5028823;28;20101;-39
2021/08/31 12:18:05;;;;;;;8.63;4.10;;;21.60;95.40;;;;;;5031431;28;20031;-39
2021/08/31 12:20:33;;;;;;;7.80;4.47;;;21.80;95.10;;;;;;5031342;28;20079;-39
2021/08/31 12:23:01;;;;;;;11.95;4.70;;;21.90;95.10;;;;;;5031489;28;20018;-36
2021/08/31 12:25:50;;;;;;;6.60;4.15;;;22.00;95.20;;;;;;5030135;28;20045;-38
2021/08/31 12:28:19;;;;;;;8.30;4.40;;;21.90;95.40;;;;;;5032048;28;20042;-41
2021/08/31 12:30:47;;;;;;;8.05;4.30;;;21.80;94.50;;;;;;5030727;28;20022;-36
2021/08/31 12:33:26;;;;;;;8.70;4.30;;;21.70;94.50;;;;;;5031383;28;20124;-38
2021/08/31 12:36:07;;;;;;;8.00;3.95;;;21.70;94.40;;;;;;5030716;28;20018;-37
2021/08/31 12:38:38;;;;;;;7.72;3.97;;;21.70;94.60;;;;;;5031768;28;20083;-38
2021/08/31 12:41:13;;;;;;;9.25;4.57;;;21.80;94.90;;;;;;5030074;28;20079;-40
2021/08/31 12:43:59;;;;;;;11.68;5.03;;;21.90;95.10;;;;;;5030735;28;20107;-40